createdAt,value
2023-04-21T00:00:17.898Z,96.56
2023-04-21T00:01:17.931Z,96.67
2023-04-21T00:02:18.038Z,96.56
2023-04-21T00:03:18.316Z,96.56
2023-04-21T00:04:18.339Z,96.46
2023-04-21T00:05:18.508Z,96.46
2023-04-21T00:06:18.301Z,96.46
2023-04-21T00:07:18.377Z,96.36
2023-04-21T00:08:18.488Z,96.25
2023-04-21T00:09:18.893Z,96.25
2023-04-21T00:10:18.637Z,96.25
2023-04-21T00:11:18.717Z,96.36
2023-04-21T00:12:18.789Z,96.36
2023-04-21T00:13:18.864Z,96.46
2023-04-21T00:14:18.951Z,96.56
2023-04-21T00:15:19.061Z,96.56
2023-04-21T00:16:19.163Z,96.67
2023-04-21T00:17:19.191Z,96.56
2023-04-21T00:18:19.270Z,96.56
2023-04-21T00:19:19.462Z,96.56
2023-04-21T00:20:19.453Z,96.56
2023-04-21T00:21:19.494Z,96.46
2023-04-21T00:22:19.582Z,96.46
2023-04-21T00:23:19.674Z,96.56
2023-04-21T00:24:19.762Z,96.56
2023-04-21T00:25:19.864Z,96.67
2023-04-21T00:26:19.915Z,96.67
2023-04-21T00:27:20.027Z,96.67
2023-04-21T00:28:20.100Z,96.67
2023-04-21T00:29:20.338Z,96.67
2023-04-21T00:30:20.277Z,96.67
2023-04-21T00:31:20.344Z,96.67
2023-04-21T00:32:20.445Z,96.67
2023-04-21T00:33:20.473Z,96.67
2023-04-21T00:34:20.575Z,96.67
2023-04-21T00:35:20.644Z,96.56
2023-04-21T00:36:20.737Z,96.56
2023-04-21T00:37:20.823Z,96.56
2023-04-21T00:38:20.924Z,96.56
2023-04-21T00:39:21.079Z,96.46
2023-04-21T00:40:21.097Z,96.46
2023-04-21T00:41:21.153Z,96.46
2023-04-21T00:42:21.244Z,96.56
2023-04-21T00:43:21.330Z,96.56
2023-04-21T00:44:21.408Z,96.56
2023-04-21T00:45:21.509Z,96.46
2023-04-21T00:46:21.611Z,96.46
2023-04-21T00:47:21.690Z,96.46
2023-04-21T00:48:21.769Z,96.46
2023-04-21T00:49:21.841Z,96.56
2023-04-21T00:50:21.960Z,96.77
2023-04-21T00:51:22.036Z,96.88
2023-04-21T00:52:22.105Z,96.88
2023-04-21T00:53:22.182Z,96.97
2023-04-21T00:54:22.260Z,96.97
2023-04-21T00:55:22.356Z,97.08
2023-04-21T00:56:22.444Z,96.97
2023-04-21T00:57:22.521Z,97.08
2023-04-21T00:58:22.617Z,96.97
2023-04-21T00:59:22.681Z,96.88
2023-04-21T01:00:22.786Z,96.97
2023-04-21T01:01:22.906Z,96.97
2023-04-21T01:02:23.079Z,97.08
2023-04-21T01:03:23.032Z,97.08
2023-04-21T01:04:23.108Z,97.08
2023-04-21T01:05:23.162Z,97.08
2023-04-21T01:06:23.238Z,96.97
2023-04-21T01:07:23.314Z,96.77
2023-04-21T01:08:23.400Z,96.88
2023-04-21T01:09:23.476Z,96.97
2023-04-21T01:10:23.589Z,96.97
2023-04-21T01:11:23.675Z,96.97
2023-04-21T01:12:23.722Z,97.08
2023-04-21T01:13:23.787Z,97.18
2023-04-21T01:14:23.875Z,97.18
2023-04-21T01:15:23.951Z,96.97
2023-04-21T01:16:24.177Z,96.88
2023-04-21T01:17:24.088Z,96.97
2023-04-21T01:18:24.187Z,96.88
2023-04-21T01:19:24.260Z,96.97
2023-04-21T01:20:24.494Z,97.08
2023-04-21T01:21:24.523Z,97.08
2023-04-21T01:22:24.533Z,97.18
2023-04-21T01:23:24.618Z,97.28
2023-04-21T01:24:24.690Z,97.28
2023-04-21T01:25:24.812Z,97.28
2023-04-21T01:26:24.868Z,97.28
2023-04-21T01:27:24.888Z,97.34
2023-04-21T01:28:24.988Z,97.39
2023-04-21T01:29:25.052Z,97.28
2023-04-21T01:30:25.161Z,97.28
2023-04-21T01:31:25.245Z,97.14
2023-04-21T01:32:25.382Z,97.03
2023-04-21T01:33:25.367Z,96.97
2023-04-21T01:34:25.452Z,96.88
2023-04-21T01:35:25.540Z,96.83
2023-04-21T01:36:25.605Z,96.77
2023-04-21T01:37:25.688Z,96.67
2023-04-21T01:38:25.772Z,96.67
2023-04-21T01:39:25.850Z,96.56
2023-04-21T01:40:25.948Z,96.56
2023-04-21T01:41:26.004Z,96.56
2023-04-21T01:42:26.105Z,96.56
2023-04-21T01:43:26.166Z,96.67
2023-04-21T01:44:26.254Z,96.67
2023-04-21T01:45:26.360Z,96.67
2023-04-21T01:46:26.501Z,96.77
2023-04-21T01:47:26.520Z,96.77
2023-04-21T01:48:26.601Z,96.88
2023-04-21T01:49:26.696Z,96.88
2023-04-21T01:50:26.802Z,96.88
2023-04-21T01:51:26.855Z,96.88
2023-04-21T01:52:26.948Z,96.88
2023-04-21T01:53:27.054Z,96.97
2023-04-21T01:54:27.104Z,96.88
2023-04-21T01:55:27.216Z,96.97
2023-04-21T01:56:27.294Z,97.08
2023-04-21T01:57:27.350Z,96.97
2023-04-21T01:58:27.428Z,96.97
2023-04-21T01:59:27.490Z,96.97
2023-04-21T02:00:27.600Z,96.97
2023-04-21T02:01:27.729Z,96.92
2023-04-21T02:02:27.857Z,97.02
2023-04-21T02:03:27.977Z,97.13
2023-04-21T02:04:28.085Z,97.23
2023-04-21T02:05:27.985Z,97.53
2023-04-21T02:06:28.045Z,97.53
2023-04-21T02:07:28.134Z,97.74
2023-04-21T02:08:28.256Z,97.74
2023-04-21T02:09:28.298Z,97.74
2023-04-21T02:10:28.429Z,97.85
2023-04-21T02:11:28.486Z,97.95
2023-04-21T02:12:28.562Z,97.95
2023-04-21T02:13:28.645Z,98.15
2023-04-21T02:14:28.745Z,98.05
2023-04-21T02:15:28.872Z,98.05
2023-04-21T02:16:28.950Z,98.05
2023-04-21T02:17:29.006Z,98.05
2023-04-21T02:18:29.084Z,97.90
2023-04-21T02:19:29.202Z,97.85
2023-04-21T02:20:29.301Z,97.85
2023-04-21T02:21:29.401Z,97.69
2023-04-21T02:22:29.454Z,97.69
2023-04-21T02:23:29.514Z,97.60
2023-04-21T02:24:29.590Z,97.60
2023-04-21T02:25:29.670Z,97.49
2023-04-21T02:26:29.729Z,97.49
2023-04-21T02:27:29.782Z,97.49
2023-04-21T02:28:29.872Z,97.49
2023-04-21T02:29:29.948Z,97.39
2023-04-21T02:30:30.061Z,97.39
2023-04-21T02:31:30.169Z,97.28
2023-04-21T02:32:30.342Z,97.28
2023-04-21T02:33:30.371Z,97.33
2023-04-21T02:34:30.363Z,97.39
2023-04-21T02:35:30.482Z,97.43
2023-04-21T02:36:30.548Z,97.64
2023-04-21T02:37:30.608Z,97.69
2023-04-21T02:38:30.681Z,97.80
2023-04-21T02:39:30.751Z,97.90
2023-04-21T02:40:30.879Z,97.80
2023-04-21T02:41:30.938Z,97.80
2023-04-21T02:42:31.030Z,97.69
2023-04-21T02:43:31.123Z,97.80
2023-04-21T02:44:31.231Z,97.85
2023-04-21T02:45:31.353Z,97.90
2023-04-21T02:46:31.423Z,97.80
2023-04-21T02:47:31.539Z,97.74
2023-04-21T02:48:31.516Z,97.85
2023-04-21T02:49:31.608Z,97.74
2023-04-21T02:50:31.708Z,97.64
2023-04-21T02:51:31.782Z,97.74
2023-04-21T02:52:31.830Z,97.74
2023-04-21T02:53:31.917Z,97.74
2023-04-21T02:54:31.998Z,97.74
2023-04-21T02:55:32.083Z,97.74
2023-04-21T02:56:32.146Z,97.74
2023-04-21T02:57:32.206Z,97.64
2023-04-21T02:58:32.289Z,97.64
2023-04-21T02:59:32.359Z,97.74
2023-04-21T03:00:32.495Z,97.85
2023-04-21T03:01:32.529Z,97.85
2023-04-21T03:02:32.737Z,97.85
2023-04-21T03:03:32.926Z,97.85
2023-04-21T03:04:32.932Z,97.85
2023-04-21T03:05:32.849Z,97.74
2023-04-21T03:06:32.913Z,97.74
2023-04-21T03:07:32.982Z,97.74
2023-04-21T03:08:33.058Z,97.74
2023-04-21T03:09:33.107Z,97.74
2023-04-21T03:10:33.202Z,97.78
2023-04-21T03:11:33.260Z,97.78
2023-04-21T03:12:33.335Z,97.58
2023-04-21T03:13:33.419Z,97.58
2023-04-21T03:14:33.492Z,97.89
2023-04-21T03:15:33.574Z,97.99
2023-04-21T03:16:33.680Z,98.10
2023-04-21T03:17:33.868Z,98.20
2023-04-21T03:18:33.829Z,98.20
2023-04-21T03:19:33.920Z,98.15
2023-04-21T03:20:34.015Z,98.15
2023-04-21T03:21:34.079Z,98.15
2023-04-21T03:22:34.161Z,97.95
2023-04-21T03:23:34.235Z,97.99
2023-04-21T03:24:34.336Z,97.99
2023-04-21T03:25:34.424Z,97.68
2023-04-21T03:26:34.529Z,97.63
2023-04-21T03:27:34.583Z,97.73
2023-04-21T03:28:34.693Z,97.94
2023-04-21T03:29:34.749Z,98.03
2023-04-21T03:30:34.862Z,98.03
2023-04-21T03:31:34.947Z,98.14
2023-04-21T03:32:35.109Z,98.24
2023-04-21T03:33:35.084Z,98.24
2023-04-21T03:34:35.153Z,98.29
2023-04-21T03:35:35.253Z,98.39
2023-04-21T03:36:35.315Z,98.39
2023-04-21T03:37:35.369Z,98.50
2023-04-21T03:38:35.451Z,98.39
2023-04-21T03:39:35.518Z,98.29
2023-04-21T03:40:35.645Z,98.29
2023-04-21T03:41:35.681Z,98.29
2023-04-21T03:42:35.776Z,98.29
2023-04-21T03:43:35.841Z,98.19
2023-04-21T03:44:35.946Z,98.33
2023-04-21T03:45:36.145Z,98.23
2023-04-21T03:46:36.103Z,98.13
2023-04-21T03:47:36.208Z,98.33
2023-04-21T03:48:36.255Z,98.33
2023-04-21T03:49:36.348Z,98.18
2023-04-21T03:50:36.441Z,98.28
2023-04-21T03:51:36.480Z,98.38
2023-04-21T03:52:36.566Z,98.53
2023-04-21T03:53:36.644Z,98.43
2023-04-21T03:54:36.715Z,98.68
2023-04-21T03:55:36.821Z,98.99
2023-04-21T03:56:36.890Z,99.19
2023-04-21T03:57:36.969Z,99.40
2023-04-21T03:58:37.070Z,99.82
2023-04-21T03:59:37.160Z,99.99
2023-04-21T04:00:37.285Z,99.99
2023-04-21T04:01:37.332Z,99.99
2023-04-21T04:02:37.602Z,99.99
2023-04-21T04:03:37.738Z,99.99
2023-04-21T04:04:37.839Z,99.99
2023-04-21T04:05:37.805Z,99.99
2023-04-21T04:06:37.805Z,99.99
2023-04-21T04:07:37.874Z,99.99
2023-04-21T04:08:37.985Z,99.99
2023-04-21T04:09:38.058Z,99.99
2023-04-21T04:10:38.168Z,99.99
2023-04-21T04:11:38.227Z,99.99
2023-04-21T04:12:38.304Z,99.99
2023-04-21T04:13:38.364Z,99.99
2023-04-21T04:14:38.466Z,99.99
2023-04-21T04:15:38.578Z,99.99
2023-04-21T04:16:38.616Z,99.99
2023-04-21T04:17:38.706Z,99.93
2023-04-21T04:18:38.780Z,99.78
2023-04-21T04:19:38.842Z,99.68
2023-04-21T04:20:38.945Z,99.78
2023-04-21T04:21:39.005Z,99.78
2023-04-21T04:22:39.090Z,99.78
2023-04-21T04:23:39.163Z,99.57
2023-04-21T04:24:39.266Z,99.57
2023-04-21T04:25:39.366Z,99.47
2023-04-21T04:26:39.426Z,99.22
2023-04-21T04:27:39.490Z,99.06
2023-04-21T04:28:39.583Z,99.06
2023-04-21T04:29:39.639Z,99.06
2023-04-21T04:30:39.757Z,99.06
2023-04-21T04:31:39.857Z,98.96
2023-04-21T04:32:39.914Z,99.06
2023-04-21T04:33:39.965Z,98.91
2023-04-21T04:34:40.070Z,99.01
2023-04-21T04:35:40.170Z,98.91
2023-04-21T04:36:40.236Z,98.80
2023-04-21T04:37:40.317Z,98.70
2023-04-21T04:38:40.411Z,98.70
2023-04-21T04:39:40.503Z,98.55
2023-04-21T04:40:40.610Z,98.45
2023-04-21T04:41:40.657Z,98.35
2023-04-21T04:42:40.747Z,98.24
2023-04-21T04:43:40.809Z,98.14
2023-04-21T04:44:40.899Z,98.14
2023-04-21T04:45:40.978Z,98.03
2023-04-21T04:46:41.119Z,97.94
2023-04-21T04:47:41.143Z,97.73
2023-04-21T04:48:41.219Z,97.63
2023-04-21T04:49:41.301Z,97.42
2023-04-21T04:50:41.396Z,97.31
2023-04-21T04:51:41.462Z,97.31
2023-04-21T04:52:41.562Z,97.11
2023-04-21T04:53:41.634Z,97.01
2023-04-21T04:54:41.712Z,96.91
2023-04-21T04:55:41.806Z,97.11
2023-04-21T04:56:41.874Z,97.11
2023-04-21T04:57:41.937Z,97.21
2023-04-21T04:58:42.023Z,97.31
2023-04-21T04:59:42.078Z,97.21
2023-04-21T05:00:42.189Z,97.11
2023-04-21T05:01:42.310Z,96.91
2023-04-21T05:02:42.491Z,96.91
2023-04-21T05:03:42.631Z,96.91
2023-04-21T05:04:42.604Z,96.91
2023-04-21T05:05:42.557Z,96.80
2023-04-21T05:06:42.611Z,96.91
2023-04-21T05:07:42.687Z,96.91
2023-04-21T05:08:42.768Z,96.95
2023-04-21T05:09:42.845Z,96.74
2023-04-21T05:10:42.947Z,97.05
2023-04-21T05:11:42.982Z,97.05
2023-04-21T05:12:43.061Z,97.21
2023-04-21T05:13:43.133Z,97.11
2023-04-21T05:14:43.223Z,97.21
2023-04-21T05:15:43.310Z,97.21
2023-04-21T05:16:43.402Z,97.11
2023-04-21T05:17:43.450Z,97.21
2023-04-21T05:18:43.516Z,97.11
2023-04-21T05:19:43.584Z,97.01
2023-04-21T05:20:43.695Z,97.01
2023-04-21T05:21:43.730Z,97.01
2023-04-21T05:22:43.809Z,97.01
2023-04-21T05:23:43.891Z,96.80
2023-04-21T05:24:43.984Z,96.84
2023-04-21T05:25:44.071Z,97.05
2023-04-21T05:26:44.146Z,97.16
2023-04-21T05:27:44.219Z,97.16
2023-04-21T05:28:44.295Z,97.05
2023-04-21T05:29:44.342Z,97.16
2023-04-21T05:30:44.452Z,96.95
2023-04-21T05:31:44.533Z,96.95
2023-04-21T05:32:44.621Z,97.16
2023-04-21T05:33:44.648Z,97.16
2023-04-21T05:34:44.736Z,97.16
2023-04-21T05:35:44.827Z,97.16
2023-04-21T05:36:44.908Z,97.16
2023-04-21T05:37:44.972Z,97.05
2023-04-21T05:38:45.050Z,96.95
2023-04-21T05:39:45.129Z,96.64
2023-04-21T05:40:45.248Z,96.64
2023-04-21T05:41:45.298Z,96.64
2023-04-21T05:42:45.373Z,96.74
2023-04-21T05:43:45.431Z,96.74
2023-04-21T05:44:45.513Z,96.74
2023-04-21T05:45:45.647Z,96.74
2023-04-21T05:46:45.689Z,96.70
2023-04-21T05:47:45.757Z,96.59
2023-04-21T05:48:45.812Z,96.49
2023-04-21T05:49:45.865Z,96.49
2023-04-21T05:50:45.976Z,96.34
2023-04-21T05:51:46.013Z,96.24
2023-04-21T05:52:46.108Z,96.24
2023-04-21T05:53:46.176Z,96.24
2023-04-21T05:54:46.244Z,96.09
2023-04-21T05:55:46.327Z,95.89
2023-04-21T05:56:46.405Z,95.78
2023-04-21T05:57:46.497Z,95.58
2023-04-21T05:58:46.571Z,95.58
2023-04-21T05:59:46.635Z,95.43
2023-04-21T06:00:48.615Z,95.33
2023-04-21T06:01:46.793Z,95.12
2023-04-21T06:02:46.925Z,95.02
2023-04-21T06:03:47.184Z,95.02
2023-04-21T06:04:47.336Z,94.87
2023-04-21T06:05:47.185Z,94.77
2023-04-21T06:06:47.254Z,94.67
2023-04-21T06:07:47.346Z,94.46
2023-04-21T06:08:47.439Z,94.26
2023-04-21T06:09:47.524Z,94.05
2023-04-21T06:10:47.632Z,94.01
2023-04-21T06:11:47.676Z,94.01
2023-04-21T06:12:47.748Z,93.70
2023-04-21T06:13:47.839Z,92.97
2023-04-21T06:14:47.912Z,93.02
2023-04-21T06:15:48.064Z,92.93
2023-04-21T06:16:48.079Z,92.64
2023-04-21T06:17:48.162Z,91.90
2023-04-21T06:18:48.248Z,90.64
2023-04-21T06:19:48.310Z,88.31
2023-04-21T06:20:48.417Z,85.77
2023-04-21T06:21:48.468Z,81.17
2023-04-21T06:22:48.576Z,81.71
2023-04-21T06:23:48.654Z,80.57
2023-04-21T06:24:48.749Z,78.93
2023-04-21T06:25:48.873Z,75.40
2023-04-21T06:26:48.929Z,73.50
2023-04-21T06:27:49.048Z,75.33
2023-04-21T06:28:49.077Z,74.93
2023-04-21T06:29:49.158Z,73.60
2023-04-21T06:30:49.276Z,70.31
2023-04-21T06:31:49.330Z,72.31
2023-04-21T06:32:49.425Z,70.31
2023-04-21T06:33:49.466Z,70.18
2023-04-21T06:34:49.565Z,69.74
2023-04-21T06:35:49.681Z,69.37
2023-04-21T06:36:49.758Z,71.16
2023-04-21T06:37:49.859Z,72.62
2023-04-21T06:38:49.932Z,70.62
2023-04-21T06:39:49.993Z,69.91
2023-04-21T06:40:50.120Z,69.67
2023-04-21T06:41:50.155Z,67.17
2023-04-21T06:42:50.249Z,67.07
2023-04-21T06:43:50.326Z,68.09
2023-04-21T06:44:51.026Z,67.46
2023-04-21T06:45:50.533Z,66.18
2023-04-21T06:46:50.656Z,62.79
2023-04-21T06:47:50.707Z,63.36
2023-04-21T06:48:50.750Z,60.10
2023-04-21T06:49:50.833Z,61.05
2023-04-21T06:50:50.942Z,57.31
2023-04-21T06:51:51.000Z,59.45
2023-04-21T06:52:51.103Z,59.91
2023-04-21T06:53:51.199Z,58.80
2023-04-21T06:54:51.278Z,60.62
2023-04-21T06:55:51.369Z,60.69
2023-04-21T06:56:51.496Z,60.60
2023-04-21T06:57:51.528Z,59.99
2023-04-21T06:58:51.634Z,59.83
2023-04-21T06:59:51.682Z,57.78
2023-04-21T07:00:51.847Z,57.58
2023-04-21T07:01:51.857Z,57.93
2023-04-21T07:02:52.044Z,56.70
2023-04-21T07:03:52.112Z,56.52
2023-04-21T07:04:52.186Z,58.01
2023-04-21T07:05:52.240Z,58.29
2023-04-21T07:06:52.289Z,57.48
2023-04-21T07:07:52.353Z,58.42
2023-04-21T07:08:52.423Z,60.41
2023-04-21T07:09:52.500Z,58.01
2023-04-21T07:10:52.587Z,57.63
2023-04-21T07:11:52.661Z,58.34
2023-04-21T07:12:52.731Z,61.13
2023-04-21T07:13:52.818Z,60.68
2023-04-21T07:14:52.913Z,62.43
2023-04-21T07:15:53.010Z,62.10
2023-04-21T07:16:53.134Z,61.52
2023-04-21T07:17:53.150Z,62.15
2023-04-21T07:18:55.047Z,63.20
2023-04-21T07:19:53.312Z,63.37
2023-04-21T07:20:53.403Z,63.48
2023-04-21T07:21:53.469Z,63.21
2023-04-21T07:22:53.551Z,62.93
2023-04-21T07:23:53.628Z,64.21
2023-04-21T07:24:53.705Z,64.51
2023-04-21T07:25:53.800Z,63.02
2023-04-21T07:26:53.847Z,64.44
2023-04-21T07:27:53.955Z,64.73
2023-04-21T07:28:54.026Z,62.76
2023-04-21T07:29:54.219Z,63.73
2023-04-21T07:30:54.218Z,64.84
2023-04-21T07:31:54.255Z,66.60
2023-04-21T07:32:54.347Z,64.54
2023-04-21T07:33:54.415Z,63.79
2023-04-21T07:34:54.488Z,65.88
2023-04-21T07:35:54.604Z,66.12
2023-04-21T07:36:54.639Z,66.83
2023-04-21T07:37:54.749Z,65.76
2023-04-21T07:38:54.812Z,64.41
2023-04-21T07:39:54.903Z,63.44
2023-04-21T07:40:55.012Z,62.40
2023-04-21T07:41:55.106Z,62.44
2023-04-21T07:42:55.148Z,59.97
2023-04-21T07:43:55.242Z,57.78
2023-04-21T07:44:55.313Z,55.46
2023-04-21T07:45:55.571Z,56.45
2023-04-21T07:46:55.492Z,59.41
2023-04-21T07:47:55.691Z,61.11
2023-04-21T07:48:55.624Z,62.79
2023-04-21T07:49:55.711Z,62.90
2023-04-21T07:50:55.802Z,61.39
2023-04-21T07:51:55.915Z,62.73
2023-04-21T07:52:55.960Z,64.04
2023-04-21T07:53:56.036Z,65.11
2023-04-21T07:54:56.095Z,66.27
2023-04-21T07:55:56.200Z,64.73
2023-04-21T07:56:56.285Z,62.81
2023-04-21T07:57:56.364Z,62.93
2023-04-21T07:58:56.433Z,63.67
2023-04-21T07:59:56.506Z,63.63
2023-04-21T08:00:56.572Z,64.50
2023-04-21T08:01:56.673Z,66.33
2023-04-21T08:02:56.839Z,67.34
2023-04-21T08:03:56.908Z,64.89
2023-04-21T08:04:57.026Z,62.98
2023-04-21T08:05:57.088Z,62.84
2023-04-21T08:06:57.531Z,64.98
2023-04-21T08:07:57.192Z,65.18
2023-04-21T08:08:57.273Z,65.04
2023-04-21T08:09:57.346Z,66.26
2023-04-21T08:10:57.433Z,64.38
2023-04-21T08:11:57.553Z,63.07
2023-04-21T08:12:57.625Z,63.90
2023-04-21T08:13:57.732Z,64.75
2023-04-21T08:15:00.415Z,65.15
2023-04-21T08:15:58.084Z,64.42
2023-04-21T08:16:58.227Z,61.90
2023-04-21T08:17:58.106Z,61.16
2023-04-21T08:18:58.123Z,59.81
2023-04-21T08:19:59.622Z,58.75
2023-04-21T08:20:58.298Z,60.75
2023-04-21T08:21:58.422Z,61.11
2023-04-21T08:22:58.562Z,62.08
2023-04-21T08:23:58.572Z,64.37
2023-04-21T08:24:58.651Z,64.73
2023-04-21T08:25:58.713Z,65.68
2023-04-21T08:26:58.828Z,66.56
2023-04-21T08:27:58.868Z,66.46
2023-04-21T08:28:58.934Z,67.61
2023-04-21T08:29:59.021Z,68.25
2023-04-21T08:30:59.280Z,68.01
2023-04-21T08:31:59.283Z,69.13
2023-04-21T08:32:59.350Z,70.38
2023-04-21T08:34:02.302Z,70.41
2023-04-21T08:34:59.445Z,70.99
2023-04-21T08:36:07.513Z,66.60
2023-04-21T08:36:59.630Z,65.99
2023-04-21T08:37:59.646Z,62.90
2023-04-21T08:38:59.739Z,60.97
2023-04-21T08:39:59.809Z,59.09
2023-04-21T08:40:59.929Z,58.36
2023-04-21T08:41:59.999Z,56.20
2023-04-21T08:43:00.149Z,54.86
2023-04-21T08:44:00.145Z,55.19
2023-04-21T08:45:00.285Z,56.22
2023-04-21T08:46:00.356Z,55.94
2023-04-21T08:47:00.412Z,53.09
2023-04-21T08:48:00.516Z,53.90
2023-04-21T08:49:00.574Z,54.75
2023-04-21T08:50:00.642Z,53.37
2023-04-21T08:51:00.717Z,55.71
2023-04-21T08:52:00.810Z,56.40
2023-04-21T08:53:00.864Z,54.35
2023-04-21T08:54:00.985Z,54.80
2023-04-21T08:55:01.042Z,54.15
2023-04-21T08:56:10.672Z,56.09
2023-04-21T08:57:11.908Z,57.93
2023-04-21T08:58:01.290Z,56.74
2023-04-21T08:59:01.392Z,55.26
2023-04-21T09:00:01.438Z,54.58
2023-04-21T09:01:01.568Z,55.23
2023-04-21T09:02:01.722Z,55.41
2023-04-21T09:03:02.690Z,55.41
2023-04-21T09:04:01.911Z,54.38
2023-04-21T09:05:02.314Z,55.36
2023-04-21T09:06:02.104Z,55.89
2023-04-21T09:07:02.018Z,55.91
2023-04-21T09:08:02.061Z,57.32
2023-04-21T09:09:02.124Z,57.51
2023-04-21T09:10:02.198Z,59.33
2023-04-21T09:11:02.277Z,59.76
2023-04-21T09:12:02.360Z,61.08
2023-04-21T09:13:02.378Z,62.07
2023-04-21T09:14:02.510Z,60.16
2023-04-21T09:15:02.537Z,60.80
2023-04-21T09:16:02.671Z,58.94
2023-04-21T09:17:02.799Z,57.68
2023-04-21T09:18:02.884Z,60.16
2023-04-21T09:19:02.861Z,60.29
2023-04-21T09:20:02.970Z,59.00
2023-04-21T09:21:03.017Z,56.65
2023-04-21T09:22:03.105Z,57.73
2023-04-21T09:23:03.183Z,58.06
2023-04-21T09:24:03.275Z,56.90
2023-04-21T09:25:03.332Z,55.83
2023-04-21T09:26:03.438Z,55.59
2023-04-21T09:27:03.527Z,57.81
2023-04-21T09:28:03.577Z,56.80
2023-04-21T09:29:03.667Z,55.31
2023-04-21T09:30:03.765Z,54.65
2023-04-21T09:31:03.912Z,54.70
2023-04-21T09:32:03.931Z,54.07
2023-04-21T09:33:13.388Z,53.09
2023-04-21T09:34:04.132Z,53.27
2023-04-21T09:35:04.110Z,53.12
2023-04-21T09:36:04.241Z,52.49
2023-04-21T09:37:04.337Z,50.71
2023-04-21T09:38:04.367Z,51.84
2023-04-21T09:40:05.356Z,52.39
2023-04-21T09:41:04.581Z,50.99
2023-04-21T09:42:04.723Z,52.19
2023-04-21T09:43:04.761Z,52.59
2023-04-21T09:44:05.198Z,52.22
2023-04-21T09:45:23.182Z,53.90
2023-04-21T09:46:05.019Z,54.80
2023-04-21T09:47:05.054Z,53.95
2023-04-21T09:48:05.197Z,55.26
2023-04-21T09:49:05.181Z,53.47
2023-04-21T09:50:05.245Z,52.92
2023-04-21T09:52:18.558Z,53.92
2023-04-21T09:53:05.449Z,54.75
2023-04-21T09:54:09.261Z,55.40
2023-04-21T09:55:05.618Z,53.00
2023-04-21T09:56:05.672Z,52.59
2023-04-21T09:57:05.770Z,51.56
2023-04-21T09:58:05.817Z,51.04
2023-04-21T09:59:05.883Z,52.01
2023-04-21T10:00:06.018Z,51.06
2023-04-21T10:01:06.107Z,52.49
2023-04-21T10:02:06.324Z,54.13
2023-04-21T10:03:06.310Z,53.55
2023-04-21T10:04:06.478Z,55.69
2023-04-21T10:05:06.495Z,56.85
2023-04-21T10:06:06.529Z,57.96
2023-04-21T10:07:06.555Z,58.69
2023-04-21T10:08:06.584Z,59.00
2023-04-21T10:09:06.653Z,59.63
2023-04-21T10:10:06.765Z,60.53
2023-04-21T10:11:06.823Z,61.35
2023-04-21T10:12:09.176Z,59.60
2023-04-21T10:13:07.036Z,60.78
2023-04-21T10:14:07.116Z,58.87
2023-04-21T10:15:07.183Z,58.64
2023-04-21T10:16:07.294Z,57.32
2023-04-21T10:17:07.323Z,57.00
2023-04-21T10:18:07.406Z,57.70
2023-04-21T10:19:07.464Z,58.31
2023-04-21T10:20:07.580Z,57.48
2023-04-21T10:21:07.659Z,58.31
2023-04-21T10:22:07.753Z,58.23
2023-04-21T10:23:07.803Z,57.86
2023-04-21T10:24:07.910Z,58.42
2023-04-21T10:25:07.966Z,59.66
2023-04-21T10:26:08.076Z,59.63
2023-04-21T10:27:08.143Z,59.58
2023-04-21T10:28:08.220Z,58.58
2023-04-21T10:29:08.275Z,61.10
2023-04-21T10:30:08.390Z,61.91
2023-04-21T10:31:08.511Z,60.97
2023-04-21T10:32:09.472Z,61.75
2023-04-21T10:33:08.658Z,61.21
2023-04-21T10:34:08.694Z,60.00
2023-04-21T10:35:08.753Z,60.26
2023-04-21T10:36:08.822Z,60.39
2023-04-21T10:37:09.196Z,62.41
2023-04-21T10:38:08.980Z,63.15
2023-04-21T10:39:09.027Z,62.04
2023-04-21T10:40:09.116Z,60.93
2023-04-21T10:41:09.163Z,62.54
2023-04-21T10:42:09.573Z,62.74
2023-04-21T10:43:09.326Z,63.65
2023-04-21T10:44:09.432Z,63.93
2023-04-21T10:45:09.495Z,59.84
2023-04-21T10:46:09.592Z,62.53
2023-04-21T10:47:09.962Z,62.96
2023-04-21T10:48:09.773Z,63.40
2023-04-21T10:49:09.830Z,63.57
2023-04-21T10:50:09.888Z,61.04
2023-04-21T10:51:09.950Z,63.07
2023-04-21T10:52:10.130Z,62.02
2023-04-21T10:53:10.111Z,61.92
2023-04-21T10:54:10.209Z,62.90
2023-04-21T10:55:10.277Z,61.19
2023-04-21T10:56:10.357Z,62.50
2023-04-21T10:57:10.576Z,61.32
2023-04-21T10:58:10.515Z,64.15
2023-04-21T10:59:10.612Z,64.42
2023-04-21T11:00:10.648Z,63.48
2023-04-21T11:01:10.727Z,59.74
2023-04-21T11:02:10.892Z,60.17
2023-04-21T11:03:10.947Z,62.23
2023-04-21T11:04:11.096Z,63.01
2023-04-21T11:05:11.019Z,62.37
2023-04-21T11:06:11.067Z,61.49
2023-04-21T11:07:11.142Z,61.39
2023-04-21T11:08:11.242Z,59.97
2023-04-21T11:09:11.268Z,60.65
2023-04-21T11:10:11.486Z,58.70
2023-04-21T11:11:11.459Z,60.89
2023-04-21T11:12:11.530Z,58.07
2023-04-21T11:13:11.614Z,59.41
2023-04-21T11:14:11.647Z,61.30
2023-04-21T11:15:11.700Z,57.94
2023-04-21T11:16:11.788Z,56.05
2023-04-21T11:17:11.858Z,58.20
2023-04-21T11:18:11.999Z,59.58
2023-04-21T11:19:11.994Z,59.86
2023-04-21T11:20:12.051Z,58.32
2023-04-21T11:21:12.173Z,57.03
2023-04-21T11:22:12.205Z,57.03
2023-04-21T11:23:12.274Z,55.90
2023-04-21T11:24:12.375Z,55.19
2023-04-21T11:25:12.464Z,54.91
2023-04-21T11:26:12.578Z,56.12
2023-04-21T11:27:12.643Z,55.54
2023-04-21T11:28:12.704Z,55.32
2023-04-21T11:29:12.775Z,53.80
2023-04-21T11:30:12.829Z,54.31
2023-04-21T11:31:13.038Z,53.80
2023-04-21T11:32:13.013Z,55.41
2023-04-21T11:33:13.104Z,53.98
2023-04-21T11:34:13.130Z,53.80
2023-04-21T11:35:13.241Z,52.72
2023-04-21T11:36:13.264Z,53.42
2023-04-21T11:37:13.357Z,54.53
2023-04-21T11:38:13.429Z,54.74
2023-04-21T11:39:13.500Z,55.11
2023-04-21T11:40:13.545Z,55.41
2023-04-21T11:41:13.624Z,55.32
2023-04-21T11:42:13.694Z,53.17
2023-04-21T11:43:13.772Z,54.31
2023-04-21T11:44:13.828Z,54.21
2023-04-21T11:45:13.917Z,55.11
2023-04-21T11:46:13.992Z,55.09
2023-04-21T11:47:14.133Z,55.69
2023-04-21T11:48:14.167Z,56.88
2023-04-21T11:49:14.206Z,54.79
2023-04-21T11:50:14.269Z,55.09
2023-04-21T11:51:14.364Z,54.48
2023-04-21T11:52:14.459Z,54.51
2023-04-21T11:53:14.532Z,53.27
2023-04-21T11:54:14.593Z,51.86
2023-04-21T11:55:14.661Z,52.97
2023-04-21T11:56:14.718Z,52.76
2023-04-21T11:57:14.817Z,53.88
2023-04-21T11:58:14.869Z,54.79
2023-04-21T11:59:14.949Z,54.79
2023-04-21T12:00:14.991Z,50.95
2023-04-21T12:01:15.103Z,51.45
2023-04-21T12:02:15.282Z,50.85
2023-04-21T12:03:15.371Z,51.28
2023-04-21T12:04:15.369Z,51.25
2023-04-21T12:05:15.394Z,50.85
2023-04-21T12:06:15.497Z,51.56
2023-04-21T12:07:15.568Z,52.04
2023-04-21T12:08:15.625Z,52.24
2023-04-21T12:09:15.712Z,51.93
2023-04-21T12:10:15.770Z,52.42
2023-04-21T12:11:15.860Z,53.32
2023-04-21T12:12:15.939Z,50.90
2023-04-21T12:13:17.099Z,52.22
2023-04-21T12:14:16.093Z,51.23
2023-04-21T12:15:16.172Z,51.84
2023-04-21T12:16:16.287Z,51.00
2023-04-21T12:17:16.351Z,49.52
2023-04-21T12:18:16.421Z,51.84
2023-04-21T12:19:16.479Z,52.47
2023-04-21T12:20:16.585Z,52.87
2023-04-21T12:21:16.662Z,53.38
2023-04-21T12:22:16.733Z,52.34
2023-04-21T12:23:16.798Z,51.23
2023-04-21T12:24:16.860Z,52.54
2023-04-21T12:25:16.988Z,52.64
2023-04-21T12:26:17.062Z,52.44
2023-04-21T12:27:17.182Z,53.45
2023-04-21T12:28:17.191Z,53.45
2023-04-21T12:29:17.297Z,53.14
2023-04-21T12:30:17.374Z,52.34
2023-04-21T12:31:17.477Z,52.84
2023-04-21T12:32:17.661Z,52.84
2023-04-21T12:33:17.676Z,53.25
2023-04-21T12:34:17.669Z,51.73
2023-04-21T12:35:17.818Z,52.24
2023-04-21T12:36:17.852Z,52.94
2023-04-21T12:37:17.961Z,52.82
2023-04-21T12:38:18.039Z,52.92
2023-04-21T12:39:18.130Z,52.31
2023-04-21T12:40:18.201Z,53.50
2023-04-21T12:41:18.305Z,53.20
2023-04-21T12:42:18.405Z,52.87
2023-04-21T12:43:18.491Z,53.67
2023-04-21T12:44:18.550Z,54.08
2023-04-21T12:45:18.636Z,52.77
2023-04-21T12:46:18.745Z,52.57
2023-04-21T12:47:18.806Z,53.20
2023-04-21T12:48:18.974Z,52.82
2023-04-21T12:49:18.958Z,54.13
2023-04-21T12:50:19.024Z,54.16
2023-04-21T12:51:19.104Z,54.66
2023-04-21T12:52:19.205Z,54.76
2023-04-21T12:53:19.261Z,56.48
2023-04-21T12:54:19.331Z,56.07
2023-04-21T12:55:19.428Z,55.99